createdAt,value
2018-05-03T00:00:27.150Z,3.20
2018-05-03T00:02:57.771Z,3.22
2018-05-03T00:05:28.414Z,2.95
2018-05-03T00:07:58.826Z,2.72
2018-05-03T00:10:29.466Z,2.40
2018-05-03T00:12:59.904Z,2.87
2018-05-03T00:15:30.345Z,2.83
2018-05-03T00:18:00.954Z,2.50
2018-05-03T00:20:31.374Z,4.18
2018-05-03T00:23:01.979Z,2.33
2018-05-03T00:25:32.262Z,2.40
2018-05-03T00:28:02.674Z,2.62
2018-05-03T00:30:33.139Z,2.22
2018-05-03T00:33:04.338Z,2.55
2018-05-03T00:35:34.782Z,4.40
2018-05-03T00:38:05.394Z,2.33
2018-05-03T00:40:36.028Z,3.00
2018-05-03T00:43:06.639Z,2.72
2018-05-03T00:45:38.077Z,2.87
2018-05-03T00:48:08.678Z,2.35
2018-05-03T00:50:39.118Z,2.25
2018-05-03T00:53:09.545Z,2.35
2018-05-03T00:55:39.986Z,2.92
2018-05-03T00:58:10.598Z,3.17
2018-05-03T01:00:41.331Z,2.62
2018-05-03T01:03:11.754Z,2.20
2018-05-03T01:05:42.386Z,2.50
2018-05-03T01:08:12.814Z,2.45
2018-05-03T01:10:43.251Z,2.35
2018-05-03T01:13:13.863Z,2.42
2018-05-03T01:15:44.137Z,2.53
2018-05-03T01:18:15.319Z,2.67
2018-05-03T01:20:45.774Z,3.80
2018-05-03T01:23:16.393Z,2.30
2018-05-03T01:25:46.827Z,3.30
2018-05-03T01:28:17.247Z,5.10
2018-05-03T01:30:47.699Z,2.30
2018-05-03T01:33:18.315Z,2.50
2018-05-03T01:36:05.729Z,2.20
2018-05-03T01:38:36.154Z,2.95
2018-05-03T01:41:06.793Z,2.10
2018-05-03T01:43:37.226Z,2.58
2018-05-03T01:46:08.082Z,6.03
2018-05-03T01:48:38.502Z,2.25
2018-05-03T01:51:09.129Z,2.85
2018-05-03T01:53:39.740Z,2.25
2018-05-03T01:56:11.135Z,3.28
2018-05-03T01:58:41.751Z,2.28
2018-05-03T02:01:12.145Z,2.47
2018-05-03T02:03:43.521Z,2.10
2018-05-03T02:06:14.152Z,3.00
2018-05-03T02:08:44.566Z,3.15
2018-05-03T02:11:15.011Z,2.08
2018-05-03T02:13:45.415Z,2.47
2018-05-03T02:16:15.857Z,1.95
2018-05-03T02:18:46.474Z,2.10
2018-05-03T02:21:16.917Z,2.08
2018-05-03T02:23:47.541Z,2.20
2018-05-03T02:26:17.984Z,3.53
2018-05-03T02:28:48.799Z,2.70
2018-05-03T02:31:20.002Z,1.80
2018-05-03T02:33:50.616Z,2.20
2018-05-03T02:36:21.060Z,1.90
2018-05-03T02:38:51.670Z,1.98
2018-05-03T02:41:22.110Z,2.00
2018-05-03T02:43:52.727Z,2.10
2018-05-03T02:46:23.174Z,2.35
2018-05-03T02:48:53.798Z,1.95
2018-05-03T02:51:24.254Z,2.08
2018-05-03T02:53:54.684Z,1.90
2018-05-03T02:56:25.131Z,2.65
2018-05-03T02:59:12.529Z,2.92
2018-05-03T03:01:58.122Z,1.90
2018-05-03T03:04:50.804Z,2.00
2018-05-03T03:21:51.165Z,2.03
2018-05-03T03:24:40.634Z,3.67
2018-05-03T03:27:37.138Z,2.25
2018-05-03T03:30:29.954Z,2.20
2018-05-03T03:46:41.315Z,2.15
2018-05-03T03:49:11.955Z,2.37
2018-05-03T03:51:42.563Z,2.78
2018-05-03T03:54:13.022Z,2.12
2018-05-03T03:56:43.635Z,2.30
2018-05-03T03:59:14.135Z,2.12
2018-05-03T04:01:44.893Z,2.53
2018-05-03T04:04:15.338Z,2.45
2018-05-03T04:06:45.758Z,2.65
2018-05-03T04:09:17.165Z,3.05
2018-05-03T04:11:47.578Z,2.78
2018-05-03T04:14:18.846Z,2.85
2018-05-03T04:16:49.283Z,2.20
2018-05-03T04:19:36.824Z,2.80
2018-05-03T04:22:24.671Z,3.22
2018-05-03T04:25:13.262Z,2.75
2018-05-03T04:27:43.870Z,2.65
2018-05-03T04:30:14.318Z,2.25
2018-05-03T04:32:44.749Z,2.60
2018-05-03T04:35:15.182Z,3.70
2018-05-03T04:37:45.794Z,2.45
2018-05-03T04:40:16.427Z,3.65
2018-05-03T04:42:47.042Z,2.90
2018-05-03T04:45:17.495Z,2.40
2018-05-03T04:47:47.920Z,2.90
2018-05-03T04:50:18.122Z,2.20
2018-05-03T04:52:49.494Z,3.72
2018-05-03T04:55:20.122Z,2.65
2018-05-03T04:57:51.502Z,3.42
2018-05-03T05:00:22.139Z,2.35
2018-05-03T05:02:52.751Z,3.65
2018-05-03T05:05:23.203Z,3.70
2018-05-03T05:07:53.823Z,2.70
2018-05-03T05:10:24.471Z,3.97
2018-05-03T05:12:55.082Z,2.50
2018-05-03T05:15:25.524Z,3.62
2018-05-03T05:17:56.212Z,2.30
2018-05-03T05:20:27.751Z,2.80
2018-05-03T05:22:58.359Z,3.35
2018-05-03T05:25:28.800Z,2.40
2018-05-03T05:27:59.230Z,2.70
2018-05-03T05:30:29.867Z,2.40
2018-05-03T05:33:00.474Z,2.90
2018-05-03T05:35:30.907Z,1.92
2018-05-03T05:38:01.517Z,2.78
2018-05-03T05:40:31.962Z,2.03
2018-05-03T05:43:02.151Z,3.10
2018-05-03T05:45:32.591Z,4.82
2018-05-03T05:48:03.042Z,6.95
2018-05-03T05:50:33.142Z,9.57
2018-05-03T05:53:03.599Z,7.65
2018-05-03T05:55:33.697Z,8.80
2018-05-03T05:58:04.326Z,10.10
2018-05-03T06:00:34.986Z,11.25
2018-05-03T06:03:05.058Z,8.57
2018-05-03T06:05:35.780Z,7.15
2018-05-03T06:08:05.862Z,6.47
2018-05-03T06:10:35.954Z,9.27
2018-05-03T06:13:06.380Z,7.57
2018-05-03T06:15:36.811Z,11.93
2018-05-03T06:18:08.204Z,5.45
2018-05-03T06:20:38.660Z,7.18
2018-05-03T06:23:08.579Z,7.30
2018-05-03T06:25:38.679Z,6.40
2018-05-03T06:28:09.394Z,9.20
2018-05-03T06:30:40.842Z,14.95
2018-05-03T06:33:12.296Z,14.60
2018-05-03T06:35:43.779Z,15.05
2018-05-03T06:38:14.239Z,13.13
2018-05-03T06:40:44.668Z,9.93
2018-05-03T06:43:15.140Z,7.32
2018-05-03T06:45:46.014Z,6.47
2018-05-03T06:48:16.390Z,5.97
2018-05-03T06:50:47.776Z,5.43
2018-05-03T06:53:18.647Z,6.80
2018-05-03T06:55:49.843Z,3.75
2018-05-03T06:58:19.923Z,4.73
2018-05-03T07:00:50.351Z,4.55
2018-05-03T07:03:20.963Z,3.87
2018-05-03T07:05:51.575Z,4.40
2018-05-03T07:08:21.967Z,3.95
2018-05-03T07:10:52.622Z,13.88
2018-05-03T07:13:22.704Z,8.03
2018-05-03T07:15:53.895Z,10.45
2018-05-03T07:18:24.526Z,13.25
2018-05-03T07:20:54.626Z,9.47
2018-05-03T07:23:25.258Z,15.23
2018-05-03T07:25:55.943Z,16.75
2018-05-03T07:28:26.598Z,16.17
2018-05-03T07:30:57.024Z,12.40
2018-05-03T07:33:27.699Z,14.65
2018-05-03T07:35:58.382Z,11.12
2018-05-03T07:38:28.815Z,10.88
2018-05-03T07:40:59.514Z,13.80
2018-05-03T07:43:30.330Z,13.45
2018-05-03T07:46:00.996Z,13.07
2018-05-03T07:48:31.731Z,15.20
2018-05-03T07:51:02.647Z,12.37
2018-05-03T07:53:33.430Z,15.27
2018-05-03T07:56:04.159Z,13.57
2018-05-03T07:58:34.817Z,12.23
2018-05-03T08:01:05.654Z,12.82
2018-05-03T08:03:36.330Z,12.90
2018-05-03T08:06:07.033Z,11.68
2018-05-03T08:08:37.700Z,12.68
2018-05-03T08:11:08.397Z,13.55
2018-05-03T08:13:39.860Z,12.52
2018-05-03T08:16:11.334Z,13.35
2018-05-03T08:18:41.804Z,14.18
2018-05-03T08:21:12.272Z,13.98
2018-05-03T08:23:42.922Z,11.15
2018-05-03T08:26:14.405Z,12.82
2018-05-03T08:28:45.098Z,14.40
2018-05-03T08:31:15.738Z,11.05
2018-05-03T08:33:46.399Z,11.80
2018-05-03T08:36:17.098Z,12.15
2018-05-03T08:38:48.543Z,11.63
2018-05-03T08:41:19.247Z,12.40
2018-05-03T08:43:49.891Z,10.80
2018-05-03T08:46:20.607Z,12.98
2018-05-03T08:48:51.290Z,11.88
2018-05-03T08:51:22.763Z,12.70
2018-05-03T08:53:54.199Z,11.43
2018-05-03T08:56:24.867Z,10.90
2018-05-03T08:58:55.546Z,14.32
2018-05-03T09:01:26.304Z,10.50
2018-05-03T09:03:57.847Z,12.13
2018-05-03T09:06:28.295Z,10.25
2018-05-03T09:08:58.419Z,9.80
2018-05-03T09:11:28.843Z,10.23
2018-05-03T09:13:59.256Z,10.10
2018-05-03T09:16:29.907Z,11.15
2018-05-03T09:19:00.310Z,9.90
2018-05-03T09:21:30.759Z,10.73
2018-05-03T09:24:01.403Z,10.65
2018-05-03T09:26:32.082Z,11.05
2018-05-03T09:29:03.487Z,11.35
2018-05-03T09:31:33.946Z,10.63
2018-05-03T09:34:05.140Z,10.20
2018-05-03T09:36:35.995Z,9.10
2018-05-03T09:39:07.511Z,13.27
2018-05-03T09:41:38.434Z,10.20
2018-05-03T09:44:08.514Z,9.20
2018-05-03T09:46:38.939Z,9.15
2018-05-03T09:49:09.007Z,9.50
2018-05-03T09:51:39.115Z,9.77
2018-05-03T09:54:10.319Z,10.70
2018-05-03T09:56:41.178Z,9.23
2018-05-03T09:59:11.891Z,8.77
2018-05-03T10:01:42.958Z,8.63
2018-05-03T10:04:13.651Z,9.63
2018-05-03T10:06:43.730Z,8.63
2018-05-03T10:09:14.145Z,9.25
2018-05-03T10:11:44.600Z,9.13
2018-05-03T10:14:14.673Z,9.47
2018-05-03T10:16:45.108Z,9.60
2018-05-03T10:19:15.935Z,8.90
2018-05-03T10:21:46.043Z,8.97
2018-05-03T10:24:16.747Z,8.23
2018-05-03T10:26:46.866Z,8.63
2018-05-03T10:29:17.273Z,7.72
2018-05-03T10:31:47.388Z,7.97
2018-05-03T10:34:18.131Z,8.40
2018-05-03T10:36:48.271Z,8.27
2018-05-03T10:39:18.666Z,7.50
2018-05-03T10:41:48.766Z,8.10
2018-05-03T10:44:19.192Z,8.25
2018-05-03T10:46:49.827Z,7.67
2018-05-03T10:49:20.219Z,8.00
2018-05-03T10:51:50.316Z,8.07
2018-05-03T10:54:20.728Z,8.38
2018-05-03T10:56:50.816Z,8.60
2018-05-03T10:59:21.220Z,9.07
2018-05-03T11:01:51.322Z,7.73
2018-05-03T11:04:21.726Z,7.65
2018-05-03T11:06:52.199Z,9.30
2018-05-03T11:09:22.262Z,7.80
2018-05-03T11:11:52.691Z,6.97
2018-05-03T11:14:22.753Z,7.23
2018-05-03T11:16:53.970Z,7.20
2018-05-03T11:19:24.048Z,7.43
2018-05-03T11:21:54.478Z,6.85
2018-05-03T11:24:24.551Z,6.67
2018-05-03T11:26:54.995Z,6.95
2018-05-03T11:29:25.383Z,6.50
2018-05-03T11:31:56.115Z,6.40
2018-05-03T11:34:26.181Z,6.53
2018-05-03T11:36:57.279Z,7.03
2018-05-03T11:39:27.509Z,6.43
2018-05-03T11:41:58.236Z,6.35
2018-05-03T11:44:28.299Z,6.40
2018-05-03T11:46:58.754Z,6.55
2018-05-03T11:49:28.831Z,6.23
2018-05-03T11:51:59.254Z,6.22
2018-05-03T11:54:29.329Z,6.60
2018-05-03T11:56:59.416Z,5.97
2018-05-03T11:59:29.891Z,6.10
2018-05-03T12:02:00.104Z,6.00
2018-05-03T12:04:30.541Z,5.87
2018-05-03T12:07:00.997Z,5.62
2018-05-03T12:09:31.054Z,5.43
2018-05-03T12:12:01.143Z,5.40
2018-05-03T12:14:31.199Z,6.37
2018-05-03T12:17:01.314Z,5.73
2018-05-03T12:19:31.707Z,5.03
2018-05-03T12:22:02.158Z,5.70
2018-05-03T12:24:32.222Z,6.50
2018-05-03T12:27:02.652Z,5.45
2018-05-03T12:29:32.727Z,6.00
2018-05-03T12:32:03.170Z,5.20
2018-05-03T12:34:34.363Z,5.47
2018-05-03T12:37:05.222Z,5.20
2018-05-03T12:39:35.618Z,5.45
2018-05-03T12:42:05.699Z,5.17
2018-05-03T12:44:36.092Z,4.97
2018-05-03T12:47:06.707Z,4.95
2018-05-03T12:49:37.307Z,4.93
2018-05-03T12:52:07.914Z,4.82
2018-05-03T12:54:38.465Z,4.47
2018-05-03T12:57:09.098Z,4.72
2018-05-03T12:59:39.703Z,4.80
2018-05-03T13:02:10.310Z,4.82
2018-05-03T13:04:41.648Z,4.32
2018-05-03T13:07:12.223Z,4.60
2018-05-03T13:09:42.642Z,4.60
2018-05-03T13:12:13.278Z,4.12
2018-05-03T13:14:43.688Z,4.22
2018-05-03T13:17:14.800Z,4.95
2018-05-03T13:19:45.652Z,5.33
2018-05-03T13:22:16.405Z,4.28
2018-05-03T13:24:46.498Z,4.47
2018-05-03T13:27:17.202Z,4.15
2018-05-03T13:29:48.386Z,4.18
2018-05-03T13:32:19.015Z,4.40
2018-05-03T13:34:49.620Z,4.00
2018-05-03T13:37:20.235Z,4.30
2018-05-03T13:39:50.826Z,4.37
2018-05-03T13:42:21.235Z,4.20
2018-05-03T13:44:52.400Z,4.40
2018-05-03T13:47:23.059Z,4.10
2018-05-03T13:49:53.846Z,3.60
2018-05-03T13:52:24.287Z,4.20
2018-05-03T13:54:54.385Z,4.30
2018-05-03T13:57:25.072Z,4.10
2018-05-03T13:59:57.180Z,3.87
2018-05-03T14:02:28.379Z,4.03
2018-05-03T14:04:58.993Z,4.20
2018-05-03T14:07:29.641Z,4.93
2018-05-03T14:10:00.668Z,4.57
2018-05-03T14:12:31.380Z,3.85
2018-05-03T14:15:01.993Z,4.40
2018-05-03T14:17:32.070Z,6.10
2018-05-03T14:20:02.508Z,3.78
2018-05-03T14:22:33.139Z,3.95
2018-05-03T14:25:03.723Z,4.82
2018-05-03T14:27:34.181Z,3.62
2018-05-03T14:30:04.608Z,3.90
2018-05-03T14:32:35.233Z,4.25
2018-05-03T14:35:05.664Z,4.00
2018-05-03T14:37:36.298Z,3.80
2018-05-03T14:40:06.406Z,4.00
2018-05-03T14:42:36.842Z,3.62
2018-05-03T14:45:07.499Z,3.65
2018-05-03T14:47:38.127Z,3.92
2018-05-03T14:50:08.582Z,4.03
2018-05-03T14:52:39.198Z,3.90
2018-05-03T14:55:09.856Z,4.25
2018-05-03T14:57:40.647Z,3.45
2018-05-03T15:00:11.261Z,3.62
2018-05-03T15:02:42.660Z,3.65
2018-05-03T15:05:13.267Z,3.80
2018-05-03T15:07:43.917Z,3.40
2018-05-03T15:10:14.338Z,3.70
2018-05-03T15:12:44.997Z,3.70
2018-05-03T15:15:15.800Z,3.72
2018-05-03T15:17:46.459Z,3.58
2018-05-03T15:20:17.075Z,3.72
2018-05-03T15:22:47.531Z,3.92
2018-05-03T15:25:17.953Z,3.42
2018-05-03T15:27:48.405Z,3.65
2018-05-03T15:30:18.826Z,4.18
2018-05-03T15:32:48.945Z,4.40
2018-05-03T15:35:18.882Z,3.28
2018-05-03T15:37:49.867Z,3.70
2018-05-03T15:40:20.533Z,3.62
2018-05-03T15:42:51.175Z,3.47
2018-05-03T15:45:21.786Z,3.92
2018-05-03T15:47:52.437Z,3.65
2018-05-03T15:50:23.046Z,3.12
2018-05-03T15:52:53.506Z,3.58
2018-05-03T15:55:24.119Z,3.45
2018-05-03T15:57:54.760Z,3.92
2018-05-03T16:00:25.375Z,4.05
2018-05-03T16:02:56.012Z,3.58
2018-05-03T16:05:26.618Z,3.30
2018-05-03T16:07:57.262Z,3.28
2018-05-03T16:10:27.865Z,3.30
2018-05-03T16:12:59.267Z,3.37
2018-05-03T16:15:29.880Z,3.20
2018-05-03T16:18:00.321Z,3.17
2018-05-03T16:20:31.022Z,2.92
2018-05-03T16:23:01.568Z,3.75
2018-05-03T16:25:32.201Z,3.50
2018-05-03T16:28:02.672Z,3.50
2018-05-03T16:30:33.901Z,3.25
2018-05-03T16:33:07.676Z,4.20
2018-05-03T16:35:38.083Z,3.20
2018-05-03T16:38:09.486Z,3.50
2018-05-03T16:40:40.108Z,3.15
2018-05-03T16:43:10.743Z,2.80
2018-05-03T16:45:41.359Z,3.03
2018-05-03T16:48:11.995Z,3.37
2018-05-03T16:50:42.419Z,3.55
2018-05-03T16:53:13.054Z,3.20
2018-05-03T16:55:43.671Z,3.20
2018-05-03T16:58:15.075Z,3.25
2018-05-03T17:00:45.673Z,2.83
2018-05-03T17:03:16.315Z,3.20
2018-05-03T17:05:46.750Z,2.83
2018-05-03T17:08:17.391Z,3.30
2018-05-03T17:10:47.996Z,3.20
2018-05-03T17:13:18.635Z,3.00
2018-05-03T17:15:49.255Z,2.87
2018-05-03T17:18:19.907Z,4.30
2018-05-03T17:20:50.341Z,7.25
2018-05-03T17:23:21.004Z,3.97
2018-05-03T17:25:51.087Z,7.13
2018-05-03T17:28:21.756Z,8.13
2018-05-03T17:30:51.840Z,6.73
2018-05-03T17:33:22.571Z,8.82
2018-05-03T17:35:52.655Z,7.23
2018-05-03T17:38:22.787Z,6.93
2018-05-03T17:40:53.222Z,7.30
2018-05-03T17:43:23.642Z,5.22
2018-05-03T17:45:53.707Z,6.20
2018-05-03T17:48:24.142Z,9.20
2018-05-03T17:50:54.532Z,4.97
2018-05-03T17:53:24.647Z,6.97
2018-05-03T17:55:54.730Z,5.57
2018-05-03T17:58:24.842Z,5.23
2018-05-03T18:00:55.572Z,5.10
2018-05-03T18:03:26.202Z,5.07
2018-05-03T18:05:56.775Z,5.35
2018-05-03T18:08:27.375Z,4.45
2018-05-03T18:10:57.946Z,5.53
2018-05-03T18:13:28.055Z,6.20
2018-05-03T18:15:58.690Z,3.92
2018-05-03T18:18:28.790Z,5.77
2018-05-03T18:20:59.495Z,3.80
2018-05-03T18:23:30.118Z,4.15
2018-05-03T18:26:01.502Z,3.75
2018-05-03T18:28:32.140Z,4.18
2018-05-03T18:31:02.763Z,4.82
2018-05-03T18:33:33.397Z,3.90
2018-05-03T18:36:03.812Z,3.55
2018-05-03T18:38:34.442Z,4.37
2018-05-03T18:41:05.091Z,2.85
2018-05-03T18:43:35.184Z,4.97
2018-05-03T18:46:05.799Z,3.53
2018-05-03T18:48:37.205Z,4.00
2018-05-03T18:51:07.914Z,3.30
2018-05-03T18:53:38.311Z,3.17
2018-05-03T18:56:09.712Z,4.30
2018-05-03T18:58:40.410Z,3.05
2018-05-03T19:01:10.896Z,4.20
2018-05-03T19:03:41.679Z,2.80
2018-05-03T19:06:12.294Z,3.10
2018-05-03T19:08:43.712Z,3.08
2018-05-03T19:11:14.326Z,4.37
2018-05-03T19:13:44.963Z,3.17
2018-05-03T19:16:15.575Z,3.60
2018-05-03T19:18:46.003Z,3.60
2018-05-03T19:21:16.595Z,4.95
2018-05-03T19:23:48.107Z,3.10
2018-05-03T19:26:20.367Z,3.28
2018-05-03T19:28:51.010Z,3.22
2018-05-03T19:31:21.631Z,3.20
2018-05-03T19:33:52.120Z,3.12
2018-05-03T19:36:22.221Z,4.33
2018-05-03T19:38:52.739Z,3.35
2018-05-03T19:41:23.461Z,4.75
2018-05-03T19:43:54.084Z,3.45
2018-05-03T19:46:24.726Z,4.10
2018-05-03T19:48:55.364Z,3.47
2018-05-03T19:51:25.777Z,3.33
2018-05-03T19:53:56.422Z,3.25
2018-05-03T19:56:27.035Z,4.18
2018-05-03T19:58:57.484Z,3.72
2018-05-03T20:01:28.096Z,3.60
2018-05-03T20:03:58.730Z,3.92
2018-05-03T20:06:29.095Z,3.60
2018-05-03T20:08:59.739Z,3.40
2018-05-03T20:11:31.667Z,5.25
2018-05-03T20:14:02.303Z,3.40
2018-05-03T20:16:32.912Z,3.40
2018-05-03T20:19:03.589Z,3.97
2018-05-03T20:21:33.730Z,4.50
2018-05-03T20:24:04.168Z,4.12
2018-05-03T20:26:34.780Z,3.95
2018-05-03T20:29:04.863Z,6.63
2018-05-03T20:31:35.306Z,7.72
2018-05-03T20:34:05.400Z,8.00
2018-05-03T20:36:36.007Z,8.35
2018-05-03T20:39:06.719Z,11.80
2018-05-03T20:41:36.860Z,8.77
2018-05-03T20:44:08.063Z,8.40
2018-05-03T20:46:38.139Z,8.50
2018-05-03T20:49:08.596Z,9.55
2018-05-03T20:51:39.422Z,8.77
2018-05-03T20:54:09.925Z,9.15
2018-05-03T20:56:40.043Z,8.97
2018-05-03T20:59:10.260Z,8.33
2018-05-03T21:01:40.332Z,8.67
2018-05-03T21:04:10.770Z,9.02
2018-05-03T21:06:40.847Z,8.93
2018-05-03T21:09:12.397Z,9.40
2018-05-03T21:11:42.649Z,8.90
2018-05-03T21:14:13.795Z,9.27
2018-05-03T21:16:44.422Z,10.98
2018-05-03T21:19:14.850Z,10.60
2018-05-03T21:21:45.686Z,9.30
2018-05-03T21:24:16.550Z,11.20
2018-05-03T21:26:46.942Z,9.90
2018-05-03T21:29:17.824Z,9.50
2018-05-03T21:31:49.255Z,10.23
2018-05-03T21:34:19.723Z,9.23
2018-05-03T21:36:49.901Z,9.88
2018-05-03T21:39:19.985Z,9.30
2018-05-03T21:41:50.875Z,8.32
2018-05-03T21:44:21.768Z,8.50
2018-05-03T21:46:53.672Z,9.15
2018-05-03T21:49:24.535Z,8.03
2018-05-03T21:51:55.231Z,8.30
2018-05-03T21:54:25.323Z,8.90
2018-05-03T21:56:56.540Z,8.65
2018-05-03T21:59:26.641Z,8.93
2018-05-03T22:01:57.151Z,8.73
2018-05-03T22:04:27.012Z,8.33
2018-05-03T22:06:57.469Z,7.80
2018-05-03T22:09:27.548Z,8.40
2018-05-03T22:11:58.245Z,8.02
2018-05-03T22:14:29.123Z,9.73
2018-05-03T22:16:59.548Z,8.10
2018-05-03T22:19:29.705Z,9.50
2018-05-03T22:22:00.013Z,7.83
2018-05-03T22:24:30.502Z,8.80
2018-05-03T22:27:00.562Z,7.40
2018-05-03T22:29:31.015Z,8.18
2018-05-03T22:32:01.108Z,7.77
2018-05-03T22:34:31.827Z,6.93
2018-05-03T22:37:02.663Z,8.10
2018-05-03T22:39:33.548Z,7.20
2018-05-03T22:42:04.242Z,7.47
2018-05-03T22:44:34.335Z,7.07
2018-05-03T22:47:05.491Z,7.35
2018-05-03T22:49:36.185Z,8.17
2018-05-03T22:52:06.349Z,6.72
2018-05-03T22:54:37.213Z,7.13
2018-05-03T22:57:07.679Z,7.57
2018-05-03T22:59:37.788Z,7.80
2018-05-03T23:02:08.956Z,7.65
2018-05-03T23:04:39.048Z,6.80
2018-05-03T23:07:09.451Z,6.97
2018-05-03T23:09:39.532Z,7.53
2018-05-03T23:12:09.942Z,7.00
2018-05-03T23:14:40.031Z,6.73
2018-05-03T23:17:10.634Z,6.65
2018-05-03T23:19:41.526Z,7.07
2018-05-03T23:22:11.691Z,6.90
2018-05-03T23:24:42.552Z,6.37
2018-05-03T23:27:13.160Z,6.80
2018-05-03T23:29:43.244Z,6.30
2018-05-03T23:32:13.859Z,6.57
2018-05-03T23:34:43.960Z,6.07
2018-05-03T23:37:14.555Z,6.75
2018-05-03T23:39:44.645Z,6.67
2018-05-03T23:42:15.829Z,6.30
2018-05-03T23:44:45.926Z,6.00
2018-05-03T23:47:17.299Z,6.40
2018-05-03T23:49:48.163Z,5.93
2018-05-03T23:52:18.604Z,6.47
2018-05-03T23:54:48.903Z,5.93
2018-05-03T23:57:19.303Z,7.12
2018-05-03T23:59:49.399Z,6.73
